KCMI

University of Illinois-Willard Airport

Champaign/Urbana, Illinois, USA
METAR KCMI 211419Z 13004KT 4SM BR SCT044 BKN090 OVC110 19/18 A3010 RMK AO2 RAB02E16 P0004 T01890183
Observed Flight Rules
May-21 @ 14:19 UTC (21 minutes ago) Marginal Visual Flight Rules
Wind Visibility Clouds Conditions
130° at 4 knots 4 miles
  • Scattered at 4,400' AGL
  • Broken at 9,000' AGL
  • Overcast at 11,000' AGL
  • Mist
Temperatures Readings Precipitation
Current 19°C / 66°F
Dewpoint 18°C / 64°F
Humidity 94%
Altimeter 30.1" Hg
Pressure 1019 hPa
Elevation 228
Current Rain 0.04
METAR KCMI 211419Z 13004KT 4SM BR SCT044 BKN090 OVC110 19/18 A3010 RMK AO2 RAB02E16 P0004 T01890183
Observed Flight Rules
May-21 @ 14:19 UTC
(21 minutes ago)
MVFR
Wind Visibility
130° at 4 knots 4 miles
Clouds
  • Scattered at 4,400' AGL
  • Broken at 9,000' AGL
  • Overcast at 11,000' AGL
Conditions
  • Mist
Temperature Dewpoint
19°C / 66°F 18°C / 64°F
Humidity Altimeter Pressure
94% 30.1" Hg 1019 hPa
Current Rain
0.04